Time;durP1;ratioP1;P1;durP2;ratioP2;P2;SDS_P1;SDS_P2;PMS_P1;PMS_P2;Temp;Humidity;BMP_temperature;BMP_pressure;BME280_temperature;BME280_humidity;BME280_pressure;Samples;Min_cycle;Max_cycle;Signal;HPM_P1;HPM_P2
2023/09/21 00:00:27;;;;;;;5.13;3.20;;;13.00;99.90;;;;;;4996044;28;20180;-75
2023/09/21 00:02:55;;;;;;;6.07;3.35;;;13.00;99.90;;;;;;4996919;28;20195;-75
2023/09/21 00:05:22;;;;;;;5.38;3.40;;;12.90;99.90;;;;;;4996164;28;20228;-75
2023/09/21 00:07:48;;;;;;;3.72;3.22;;;12.90;99.90;;;;;;4996180;28;20231;-75
2023/09/21 00:10:14;;;;;;;4.80;3.80;;;12.90;99.90;;;;;;4996176;28;20180;-75
2023/09/21 00:12:41;;;;;;;4.60;3.50;;;12.80;99.90;;;;;;4997224;28;20184;-75
2023/09/21 00:15:21;;;;;;;5.32;3.85;;;12.70;99.90;;;;;;4996866;28;20231;-75
2023/09/21 00:17:50;;;;;;;3.60;3.30;;;12.70;99.90;;;;;;4995584;28;20196;-76
2023/09/21 00:20:28;;;;;;;5.38;3.47;;;12.70;99.90;;;;;;4995930;28;20541;-76
2023/09/21 00:22:54;;;;;;;3.88;3.17;;;12.70;99.90;;;;;;4995459;28;20203;-76
2023/09/21 00:25:21;;;;;;;4.03;2.92;;;12.70;99.90;;;;;;4996591;28;20567;-75
2023/09/21 00:27:47;;;;;;;5.30;2.90;;;12.70;99.90;;;;;;4996742;28;20551;-75
2023/09/21 00:30:13;;;;;;;3.85;3.30;;;12.70;99.90;;;;;;4995457;28;20187;-75
2023/09/21 00:32:39;;;;;;;5.20;3.13;;;12.60;99.90;;;;;;4995621;28;20188;-75
2023/09/21 00:35:10;;;;;;;3.47;3.17;;;12.60;99.90;;;;;;4995640;28;20196;-75
2023/09/21 00:37:39;;;;;;;4.90;3.22;;;12.60;99.90;;;;;;4995709;28;20161;-75
2023/09/21 00:40:25;;;;;;;4.55;3.42;;;12.50;99.90;;;;;;4995346;28;20203;-75
2023/09/21 00:42:55;;;;;;;3.10;2.90;;;12.50;99.90;;;;;;4995423;28;20224;-75
2023/09/21 00:45:21;;;;;;;5.65;3.17;;;12.50;99.90;;;;;;4996004;28;20227;-75
2023/09/21 00:47:52;;;;;;;3.60;3.15;;;12.50;99.90;;;;;;4995448;28;20637;-75
2023/09/21 00:50:21;;;;;;;4.72;2.95;;;12.40;99.90;;;;;;4996686;28;20188;-75
2023/09/21 00:52:49;;;;;;;3.28;2.97;;;12.40;99.90;;;;;;4995884;28;20176;-75
2023/09/21 00:55:24;;;;;;;5.63;2.97;;;12.40;99.90;;;;;;4996131;28;20279;-75
2023/09/21 00:57:56;;;;;;;5.85;3.28;;;12.30;99.90;;;;;;4994938;28;20207;-75
2023/09/21 01:20:29;;;;;;;3.30;3.00;;;12.00;99.90;;;;;;4916816;29;20202;-74
2023/09/21 01:23:12;;;;;;;4.55;3.08;;;12.10;99.90;;;;;;4901566;29;20671;-74
2023/09/21 01:25:39;;;;;;;3.75;3.20;;;12.00;99.90;;;;;;4916764;29;20560;-74
2023/09/21 01:28:10;;;;;;;3.25;2.95;;;12.00;99.90;;;;;;4955729;28;20184;-74
2023/09/21 01:30:37;;;;;;;5.13;3.75;;;12.00;99.90;;;;;;4979058;28;20168;-74
2023/09/21 01:33:04;;;;;;;5.85;3.20;;;11.90;99.90;;;;;;4978435;28;20189;-74
2023/09/21 01:36:03;;;;;;;10.38;3.40;;;11.90;99.90;;;;;;4978969;28;20544;-73
2023/09/21 01:38:28;;;;;;;4.80;3.50;;;11.90;99.90;;;;;;4979005;28;20179;-74
2023/09/21 01:40:54;;;;;;;3.40;2.90;;;11.90;99.90;;;;;;4978189;28;20632;-74
2023/09/21 01:43:20;;;;;;;6.55;3.50;;;11.90;99.90;;;;;;4977735;28;20214;-74
2023/09/21 01:45:48;;;;;;;3.83;3.33;;;11.80;99.90;;;;;;4978395;28;20236;-73
2023/09/21 01:48:15;;;;;;;5.07;3.58;;;11.80;99.90;;;;;;4978071;28;20210;-74
2023/09/21 01:50:46;;;;;;;4.43;3.60;;;11.70;99.90;;;;;;4995228;28;20179;-74
2023/09/21 01:53:13;;;;;;;5.20;3.63;;;11.60;99.90;;;;;;4977700;28;20184;-74
2023/09/21 01:55:40;;;;;;;5.15;3.47;;;11.60;99.90;;;;;;4994801;28;20258;-73
2023/09/21 01:58:07;;;;;;;4.40;4.00;;;11.60;99.90;;;;;;4977991;28;20188;-74
2023/09/21 02:00:35;;;;;;;4.78;3.97;;;11.60;99.90;;;;;;4977836;28;20184;-74
2023/09/21 02:03:06;;;;;;;6.57;3.80;;;11.40;99.90;;;;;;4994796;28;20211;-74
2023/09/21 02:05:32;;;;;;;4.97;3.50;;;11.50;99.90;;;;;;4978265;28;20181;-74
2023/09/21 02:07:58;;;;;;;4.28;3.60;;;11.50;99.90;;;;;;4978329;28;20283;-74
2023/09/21 02:10:24;;;;;;;3.65;3.35;;;11.50;99.90;;;;;;4977467;28;20183;-74
2023/09/21 02:12:56;;;;;;;4.25;3.70;;;11.60;99.90;;;;;;4977621;28;20184;-74
2023/09/21 02:15:23;;;;;;;4.28;3.50;;;11.60;99.90;;;;;;4994872;28;20165;-74
2023/09/21 02:17:48;;;;;;;4.10;3.28;;;11.50;99.90;;;;;;4977252;28;20195;-74
2023/09/21 02:20:15;;;;;;;3.63;3.20;;;11.60;99.90;;;;;;4977704;28;20188;-74
2023/09/21 02:22:48;;;;;;;5.55;3.65;;;11.60;99.90;;;;;;4978050;28;20220;-74
2023/09/21 02:25:15;;;;;;;4.20;3.47;;;11.40;99.90;;;;;;4994916;28;20199;-74
2023/09/21 02:27:43;;;;;;;4.20;3.13;;;11.30;99.90;;;;;;4977111;28;20207;-74
2023/09/21 02:30:11;;;;;;;3.78;3.10;;;11.30;99.90;;;;;;4994530;28;20255;-74
2023/09/21 02:32:38;;;;;;;3.55;3.25;;;11.40;99.90;;;;;;4977106;28;20180;-74
2023/09/21 02:35:07;;;;;;;3.40;3.10;;;11.40;99.90;;;;;;4977281;28;20239;-74
2023/09/21 02:51:54;;;;;;;5.57;3.45;;;11.30;99.90;;;;;;4994455;28;20287;-74
2023/09/21 02:54:19;;;;;;;3.92;3.47;;;11.30;99.90;;;;;;4993795;28;20180;-74
2023/09/21 03:06:52;;;;;;;3.28;2.88;;;11.30;99.90;;;;;;4992906;23;20270;-84
2023/09/21 03:09:17;;;;;;;3.58;3.28;;;11.40;99.90;;;;;;4992455;28;20705;-84
2023/09/21 03:11:45;;;;;;;4.68;3.25;;;11.50;99.90;;;;;;4992747;28;20206;-84
2023/09/21 03:14:10;;;;;;;3.00;2.72;;;11.50;99.90;;;;;;4993493;28;20207;-84
2023/09/21 03:16:39;;;;;;;4.50;3.58;;;11.50;99.90;;;;;;4992699;28;20180;-84
2023/09/21 03:19:05;;;;;;;5.85;3.50;;;11.50;99.90;;;;;;4992954;28;20203;-84
2023/09/21 03:21:34;;;;;;;4.90;3.42;;;11.30;99.90;;;;;;4992592;28;20172;-84
2023/09/21 03:24:00;;;;;;;7.65;3.83;;;11.30;99.90;;;;;;4992564;28;20266;-84
2023/09/21 03:26:26;;;;;;;4.53;3.65;;;11.30;99.90;;;;;;4992563;28;20187;-85
2023/09/21 03:28:52;;;;;;;4.28;3.80;;;11.30;99.90;;;;;;4992412;28;20200;-84
2023/09/21 03:31:18;;;;;;;4.13;3.50;;;11.20;99.90;;;;;;4992788;28;20246;-84
2023/09/21 03:33:46;;;;;;;5.03;3.40;;;11.30;99.90;;;;;;4993348;28;20220;-84
2023/09/21 03:36:13;;;;;;;5.63;3.38;;;11.30;99.90;;;;;;4992430;28;20203;-84
2023/09/21 03:38:40;;;;;;;4.00;3.40;;;11.30;99.90;;;;;;4992462;28;20729;-84
2023/09/21 03:41:05;;;;;;;4.55;3.35;;;11.30;99.90;;;;;;4993065;28;20187;-84
2023/09/21 03:43:31;;;;;;;4.10;3.17;;;11.30;99.90;;;;;;4992861;28;20199;-84
2023/09/21 03:45:56;;;;;;;3.97;3.58;;;11.30;99.90;;;;;;4992353;28;20245;-84
2023/09/21 03:48:22;;;;;;;7.55;3.53;;;11.30;99.90;;;;;;4992562;28;20201;-84
2023/09/21 03:50:52;;;;;;;3.83;3.42;;;11.30;99.90;;;;;;4993287;28;20207;-84
2023/09/21 03:53:17;;;;;;;4.95;3.08;;;11.20;99.90;;;;;;4992327;28;20176;-84
2023/09/21 03:55:45;;;;;;;6.38;3.55;;;11.20;99.90;;;;;;4992538;28;20180;-84
2023/09/21 03:58:12;;;;;;;3.90;3.45;;;11.20;99.90;;;;;;4993394;28;20208;-84
2023/09/21 04:00:38;;;;;;;5.10;3.50;;;11.30;99.90;;;;;;4992257;28;20291;-84
2023/09/21 04:03:08;;;;;;;7.45;3.63;;;11.30;99.90;;;;;;4991989;28;20208;-84
2023/09/21 04:05:35;;;;;;;4.53;3.58;;;11.40;99.90;;;;;;4992097;28;20227;-84
2023/09/21 04:08:02;;;;;;;3.55;3.25;;;11.40;99.90;;;;;;4994191;28;20175;-84
2023/09/21 04:10:28;;;;;;;6.47;3.67;;;11.40;99.90;;;;;;4992911;28;20230;-84
2023/09/21 04:12:57;;;;;;;5.63;3.65;;;11.40;99.90;;;;;;4995138;28;20184;-84
2023/09/21 04:15:28;;;;;;;4.35;3.33;;;11.40;99.90;;;;;;4996779;28;20696;-85
2023/09/21 04:17:57;;;;;;;4.50;3.38;;;11.30;99.90;;;;;;4995853;28;20184;-84
2023/09/21 04:20:23;;;;;;;4.90;3.40;;;11.20;99.90;;;;;;4995615;28;20210;-85
2023/09/21 04:22:50;;;;;;;4.28;3.70;;;11.20;99.90;;;;;;4995943;28;20223;-85
2023/09/21 04:25:16;;;;;;;4.75;3.60;;;11.20;99.90;;;;;;4995789;28;20260;-84
2023/09/21 04:27:51;;;;;;;4.90;3.22;;;11.20;99.90;;;;;;4995417;28;20184;-84
2023/09/21 04:30:18;;;;;;;4.93;3.17;;;11.20;99.90;;;;;;4996348;28;20175;-84
2023/09/21 04:32:46;;;;;;;4.35;3.28;;;11.20;99.90;;;;;;4995327;28;20195;-84
2023/09/21 04:35:12;;;;;;;6.68;3.72;;;11.20;99.90;;;;;;4997298;28;20188;-82
2023/09/21 04:37:38;;;;;;;4.65;3.30;;;11.10;99.90;;;;;;4995723;28;20180;-84
2023/09/21 04:40:12;;;;;;;3.67;3.38;;;11.10;99.90;;;;;;4995214;28;20218;-83
2023/09/21 04:42:42;;;;;;;6.03;3.20;;;11.10;99.90;;;;;;4996390;28;20200;-83
2023/09/21 04:45:10;;;;;;;3.83;2.90;;;11.10;99.90;;;;;;4995291;28;20199;-83
2023/09/21 04:47:36;;;;;;;3.92;3.58;;;11.10;99.90;;;;;;4995029;28;20183;-83
2023/09/21 04:50:02;;;;;;;4.45;3.10;;;11.00;99.90;;;;;;4995775;28;20291;-86
2023/09/21 04:52:30;;;;;;;5.53;4.10;;;11.00;99.90;;;;;;4995092;28;20264;-83
2023/09/21 04:54:56;;;;;;;5.78;3.40;;;10.90;99.90;;;;;;4995157;28;20199;-83
2023/09/21 04:57:22;;;;;;;4.45;3.47;;;10.90;99.90;;;;;;4995086;28;20173;-83
2023/09/21 04:59:48;;;;;;;4.43;3.30;;;11.00;99.90;;;;;;4995392;28;20207;-84
2023/09/21 05:02:14;;;;;;;4.43;3.30;;;11.00;99.90;;;;;;4995027;28;20176;-85
2023/09/21 05:04:41;;;;;;;4.43;3.42;;;11.00;99.90;;;;;;4995326;28;20227;-85
2023/09/21 05:07:06;;;;;;;6.88;3.53;;;10.90;99.90;;;;;;4995114;28;20196;-85
2023/09/21 05:09:33;;;;;;;7.13;3.60;;;10.90;99.90;;;;;;4995069;28;20207;-84
2023/09/21 05:12:00;;;;;;;7.75;3.67;;;10.90;99.90;;;;;;4995068;28;20589;-85
2023/09/21 05:14:26;;;;;;;6.25;3.50;;;10.90;99.90;;;;;;4994726;28;20191;-85
2023/09/21 05:16:56;;;;;;;4.85;3.47;;;10.90;99.90;;;;;;4995459;28;20180;-85
2023/09/21 05:19:22;;;;;;;4.25;3.45;;;10.90;99.90;;;;;;4994548;28;20254;-85
2023/09/21 05:21:51;;;;;;;4.38;3.67;;;10.90;99.90;;;;;;4995302;28;20180;-85
2023/09/21 05:24:17;;;;;;;4.63;3.40;;;10.90;99.90;;;;;;4993886;28;20208;-85
2023/09/21 05:26:44;;;;;;;6.13;3.53;;;11.00;99.90;;;;;;4995387;28;20172;-84
2023/09/21 05:29:11;;;;;;;6.78;3.78;;;11.10;99.90;;;;;;4994573;28;20196;-85
2023/09/21 05:31:36;;;;;;;6.07;4.05;;;11.00;99.90;;;;;;4993498;28;20696;-84
2023/09/21 05:34:02;;;;;;;7.13;3.80;;;11.00;99.90;;;;;;4994559;28;20184;-84
2023/09/21 05:36:29;;;;;;;4.80;3.45;;;11.10;99.90;;;;;;4994294;28;20185;-84
2023/09/21 05:38:55;;;;;;;7.25;3.90;;;11.20;99.90;;;;;;4994559;28;20204;-85
2023/09/21 05:41:21;;;;;;;5.53;4.00;;;11.30;99.90;;;;;;4994761;28;20600;-84
2023/09/21 05:43:46;;;;;;;5.35;3.72;;;11.20;99.90;;;;;;4995654;28;20212;-85
2023/09/21 05:46:12;;;;;;;9.00;3.80;;;11.30;99.90;;;;;;4994054;28;20172;-85
2023/09/21 05:48:40;;;;;;;4.93;3.55;;;11.30;99.90;;;;;;4993961;28;20289;-85
2023/09/21 05:51:09;;;;;;;8.65;3.78;;;11.40;99.90;;;;;;4994368;28;20753;-85
2023/09/21 05:53:35;;;;;;;12.63;4.15;;;11.50;99.90;;;;;;4994019;28;20219;-83
2023/09/21 05:56:01;;;;;;;4.70;3.10;;;11.60;99.90;;;;;;4994809;28;20207;-85
2023/09/21 05:58:29;;;;;;;5.55;3.95;;;11.80;99.90;;;;;;4994629;28;20239;-84
2023/09/21 06:00:55;;;;;;;6.03;3.50;;;12.00;99.90;;;;;;4994442;28;20269;-85
2023/09/21 06:03:21;;;;;;;7.03;3.78;;;12.30;99.90;;;;;;4993968;28;20300;-84
2023/09/21 06:05:57;;;;;;;6.25;3.60;;;12.50;99.90;;;;;;4994545;28;20196;-84
2023/09/21 06:08:22;;;;;;;5.25;3.30;;;12.90;99.90;;;;;;4994471;28;20204;-85
2023/09/21 06:10:48;;;;;;;8.00;3.65;;;13.20;99.90;;;;;;4994847;28;20726;-85
2023/09/21 06:13:14;;;;;;;5.10;3.10;;;13.60;99.90;;;;;;4994013;28;20556;-85
2023/09/21 06:15:49;;;;;;;7.60;3.70;;;14.00;99.90;;;;;;4993506;28;20176;-85
2023/09/21 06:18:17;;;;;;;7.88;3.65;;;14.20;99.90;;;;;;4994253;28;20283;-85
2023/09/21 06:20:43;;;;;;;15.63;12.75;;;14.30;99.90;;;;;;4994268;28;20566;-85
2023/09/21 06:23:17;;;;;;;14.02;12.45;;;14.20;99.90;;;;;;4993715;28;20212;-85
2023/09/21 06:25:43;;;;;;;10.50;8.48;;;14.30;99.90;;;;;;4993545;28;20626;-84
2023/09/21 06:28:09;;;;;;;9.23;5.68;;;14.40;99.90;;;;;;4994551;28;20708;-84
2023/09/21 06:30:34;;;;;;;8.50;6.20;;;14.30;99.90;;;;;;4993261;28;20215;-85
2023/09/21 06:33:01;;;;;;;7.88;5.57;;;14.40;99.90;;;;;;4993529;28;20176;-85
2023/09/21 06:35:27;;;;;;;6.40;5.80;;;14.60;99.90;;;;;;4993032;28;20180;-85
2023/09/21 06:37:55;;;;;;;8.23;5.15;;;14.90;99.90;;;;;;4993077;28;20191;-85
2023/09/21 06:40:22;;;;;;;14.75;4.88;;;15.20;99.90;;;;;;4993066;28;20709;-85
2023/09/21 06:43:38;;;;;;;9.65;3.80;;;15.50;99.90;;;;;;4993043;28;20239;-85
2023/09/21 06:46:05;;;;;;;9.73;4.30;;;15.60;99.90;;;;;;4990724;28;20172;-85
2023/09/21 06:48:31;;;;;;;8.90;4.18;;;15.60;99.90;;;;;;4993481;28;20566;-85
2023/09/21 06:50:56;;;;;;;11.15;4.00;;;15.60;99.90;;;;;;4992997;28;20172;-85
2023/09/21 06:53:23;;;;;;;12.20;4.65;;;15.50;99.90;;;;;;4993295;28;20180;-86
2023/09/21 06:55:49;;;;;;;12.23;3.83;;;15.50;99.90;;;;;;4994306;28;20202;-84
2023/09/21 06:58:15;;;;;;;10.40;4.18;;;15.50;99.90;;;;;;4993113;28;20566;-86
2023/09/21 07:00:41;;;;;;;7.78;3.95;;;15.50;99.90;;;;;;4992654;28;20176;-86
2023/09/21 07:03:07;;;;;;;8.93;3.95;;;15.40;99.90;;;;;;4993532;28;20215;-85
2023/09/21 07:05:34;;;;;;;3.75;3.45;;;15.40;99.90;;;;;;4994013;28;20282;-85
2023/09/21 07:07:59;;;;;;;4.60;3.88;;;15.40;99.90;;;;;;4992666;28;20222;-85
2023/09/21 07:10:25;;;;;;;10.75;4.35;;;15.40;99.90;;;;;;4992895;28;20211;-85
2023/09/21 07:12:51;;;;;;;10.18;4.30;;;15.40;99.90;;;;;;4993175;28;20192;-85
2023/09/21 07:15:18;;;;;;;7.40;4.30;;;15.50;99.90;;;;;;4992841;28;20563;-85
2023/09/21 07:17:43;;;;;;;7.45;4.45;;;15.50;99.90;;;;;;4992826;28;20271;-85
2023/09/21 07:20:09;;;;;;;7.55;4.00;;;15.60;99.90;;;;;;4992845;28;20303;-85
2023/09/21 07:22:35;;;;;;;5.60;3.75;;;15.70;99.90;;;;;;4993127;28;20202;-85
2023/09/21 07:25:02;;;;;;;4.25;3.92;;;15.80;99.90;;;;;;4992524;28;20188;-86
2023/09/21 07:27:28;;;;;;;5.32;4.10;;;16.00;99.90;;;;;;4993503;28;20187;-85
2023/09/21 07:29:57;;;;;;;6.97;4.05;;;15.90;99.90;;;;;;4993301;28;20196;-85
2023/09/21 07:32:25;;;;;;;6.03;4.20;;;16.00;99.90;;;;;;4992543;28;20204;-86
2023/09/21 07:34:51;;;;;;;10.85;4.55;;;16.00;99.90;;;;;;4992526;28;20176;-85
2023/09/21 07:37:16;;;;;;;11.45;4.78;;;16.10;99.90;;;;;;4992322;28;20180;-85
2023/09/21 07:39:42;;;;;;;6.20;4.60;;;16.10;99.90;;;;;;4992659;28;20219;-85
2023/09/21 07:42:09;;;;;;;6.80;4.15;;;16.10;99.90;;;;;;4992794;28;20646;-85
2023/09/21 07:44:35;;;;;;;7.60;4.40;;;16.20;99.90;;;;;;4992821;28;20211;-85
2023/09/21 07:47:00;;;;;;;6.70;3.88;;;16.30;99.90;;;;;;4996326;28;20180;-85
2023/09/21 07:49:26;;;;;;;4.93;4.15;;;16.30;99.90;;;;;;4996491;28;20210;-85
2023/09/21 07:51:55;;;;;;;5.43;4.28;;;16.40;99.90;;;;;;4996396;28;20173;-85
2023/09/21 07:54:21;;;;;;;7.18;4.10;;;16.20;99.90;;;;;;4996447;28;20180;-85
2023/09/21 07:56:47;;;;;;;9.35;4.60;;;16.20;99.90;;;;;;4996376;28;20188;-85
2023/09/21 07:59:12;;;;;;;6.03;4.40;;;16.30;99.90;;;;;;4997114;28;20222;-85
2023/09/21 08:01:38;;;;;;;4.95;4.55;;;16.30;99.90;;;;;;4996419;28;20180;-85
2023/09/21 08:04:04;;;;;;;5.53;4.60;;;16.20;99.90;;;;;;4995963;28;20204;-85
2023/09/21 08:06:30;;;;;;;11.38;4.72;;;16.20;99.90;;;;;;4996634;28;20593;-85
2023/09/21 08:08:57;;;;;;;12.55;4.75;;;16.10;99.90;;;;;;4995659;28;20196;-85
2023/09/21 08:11:23;;;;;;;5.82;4.32;;;16.00;99.90;;;;;;4997149;28;20215;-85
2023/09/21 08:13:49;;;;;;;6.50;4.93;;;16.00;99.90;;;;;;4996050;28;20215;-85
2023/09/21 08:16:15;;;;;;;7.57;4.65;;;16.00;99.90;;;;;;4996010;28;20191;-85
2023/09/21 08:18:41;;;;;;;5.85;4.68;;;16.10;99.90;;;;;;4995774;28;20200;-85
2023/09/21 08:21:09;;;;;;;7.15;4.32;;;16.00;99.90;;;;;;4995697;28;20184;-85
2023/09/21 08:23:35;;;;;;;8.75;4.03;;;16.00;99.90;;;;;;4995732;28;20200;-85
2023/09/21 08:26:02;;;;;;;6.57;4.40;;;16.00;99.90;;;;;;4997018;28;20212;-85
2023/09/21 08:28:29;;;;;;;8.85;4.82;;;16.10;99.90;;;;;;4995426;28;20601;-85
2023/09/21 08:30:55;;;;;;;10.52;5.15;;;16.20;99.90;;;;;;4996455;28;20189;-85
2023/09/21 08:33:22;;;;;;;11.10;6.28;;;16.20;99.90;;;;;;4995428;28;20227;-85
2023/09/21 08:35:48;;;;;;;13.20;5.80;;;16.30;99.90;;;;;;4995639;28;20654;-85
2023/09/21 08:38:14;;;;;;;13.68;8.85;;;16.40;99.90;;;;;;4995749;28;20207;-85
2023/09/21 08:40:43;;;;;;;31.38;19.70;;;16.50;99.90;;;;;;4995630;28;20184;-85
2023/09/21 08:43:14;;;;;;;36.42;22.75;;;16.50;99.90;;;;;;4995467;28;20199;-85
2023/09/21 08:45:40;;;;;;;20.95;15.43;;;16.70;99.90;;;;;;4995843;28;20181;-86
2023/09/21 08:48:08;;;;;;;20.23;14.35;;;16.90;99.90;;;;;;4995055;28;20606;-86
2023/09/21 08:50:35;;;;;;;16.08;9.85;;;17.30;99.90;;;;;;4995965;28;20181;-85
2023/09/21 08:53:03;;;;;;;12.07;9.65;;;17.50;99.90;;;;;;4995149;28;20256;-85
2023/09/21 08:55:29;;;;;;;13.20;7.65;;;17.50;99.90;;;;;;4995292;28;20272;-85
2023/09/21 08:57:56;;;;;;;7.95;7.13;;;17.80;99.90;;;;;;4994565;28;20227;-86
2023/09/21 09:00:26;;;;;;;8.18;6.88;;;17.90;99.90;;;;;;4995330;28;20207;-85
2023/09/21 09:02:53;;;;;;;7.55;5.88;;;17.90;99.90;;;;;;4994695;28;20223;-85
2023/09/21 09:05:18;;;;;;;6.03;4.80;;;17.90;99.90;;;;;;4994744;28;20177;-85
2023/09/21 09:07:45;;;;;;;6.18;4.68;;;17.80;99.90;;;;;;4994739;28;20196;-85
2023/09/21 09:10:12;;;;;;;5.38;4.43;;;17.70;99.90;;;;;;4995438;28;20240;-85
2023/09/21 09:12:39;;;;;;;5.90;4.30;;;17.60;99.90;;;;;;4994576;28;20184;-86
2023/09/21 09:15:06;;;;;;;7.55;5.07;;;17.60;99.90;;;;;;4995620;28;20219;-85
2023/09/21 09:17:32;;;;;;;5.47;4.47;;;17.70;99.90;;;;;;4994753;28;20651;-85
2023/09/21 09:20:01;;;;;;;5.10;4.60;;;18.00;99.90;;;;;;4994504;28;20203;-85
2023/09/21 09:22:28;;;;;;;7.60;4.78;;;18.30;99.90;;;;;;4994496;28;20235;-85
2023/09/21 09:24:55;;;;;;;4.80;4.40;;;18.50;99.90;;;;;;4986158;28;20263;-86
2023/09/21 09:27:21;;;;;;;6.25;4.70;;;18.90;99.90;;;;;;4983814;28;20235;-86
2023/09/21 09:29:48;;;;;;;7.90;4.47;;;19.20;99.90;;;;;;4991132;28;20208;-86
2023/09/21 09:32:15;;;;;;;7.47;4.40;;;19.50;99.90;;;;;;4994574;28;20204;-85
2023/09/21 09:34:44;;;;;;;7.60;4.60;;;19.90;99.90;;;;;;4994608;28;20184;-86
2023/09/21 09:37:12;;;;;;;5.80;4.72;;;20.00;99.90;;;;;;4994516;28;20187;-86
2023/09/21 09:39:38;;;;;;;9.15;4.53;;;20.20;99.90;;;;;;4993893;28;20200;-86
2023/09/21 09:42:06;;;;;;;6.13;4.85;;;20.30;99.90;;;;;;4994345;28;20230;-85
2023/09/21 09:44:38;;;;;;;5.53;4.88;;;20.40;99.90;;;;;;4994270;28;20208;-86
2023/09/21 09:47:09;;;;;;;6.75;4.88;;;20.50;99.90;;;;;;4993244;28;20168;-86
2023/09/21 09:49:38;;;;;;;5.40;4.90;;;20.60;99.90;;;;;;4993979;28;20192;-85
2023/09/21 09:52:06;;;;;;;9.73;5.00;;;20.70;99.90;;;;;;4994181;28;20187;-85
2023/09/21 09:54:32;;;;;;;8.35;5.07;;;20.50;99.90;;;;;;4993820;28;20184;-85
2023/09/21 09:56:59;;;;;;;7.25;5.35;;;20.70;99.90;;;;;;4994125;28;20271;-85
2023/09/21 09:59:28;;;;;;;5.65;4.90;;;20.80;99.90;;;;;;4993928;28;20204;-86
2023/09/21 10:01:55;;;;;;;5.40;4.90;;;21.00;99.90;;;;;;4993778;28;20210;-85
2023/09/21 10:04:21;;;;;;;7.70;4.75;;;21.10;99.90;;;;;;4994446;28;20203;-85
2023/09/21 10:06:47;;;;;;;7.75;5.53;;;21.10;99.90;;;;;;4993745;28;20198;-85
2023/09/21 10:09:14;;;;;;;6.50;4.82;;;21.30;99.90;;;;;;4992638;28;20682;-86
2023/09/21 10:11:46;;;;;;;8.18;4.97;;;21.20;99.90;;;;;;4993301;28;20673;-85
2023/09/21 10:14:17;;;;;;;5.60;4.78;;;21.30;99.90;;;;;;4994574;28;20184;-85
2023/09/21 10:16:53;;;;;;;6.72;4.55;;;21.30;99.90;;;;;;4993480;28;20638;-86
2023/09/21 10:19:26;;;;;;;7.05;4.70;;;21.50;99.90;;;;;;4994004;28;20238;-86
2023/09/21 10:22:03;;;;;;;5.97;5.47;;;21.70;99.90;;;;;;4993425;28;20180;-85
2023/09/21 10:24:30;;;;;;;5.85;5.00;;;22.00;99.90;;;;;;4994444;28;20200;-85
2023/09/21 10:27:03;;;;;;;6.68;5.10;;;22.10;99.90;;;;;;4993391;28;20226;-85
2023/09/21 10:29:36;;;;;;;9.25;4.72;;;22.30;99.90;;;;;;4993741;28;20197;-86
2023/09/21 10:32:06;;;;;;;8.73;5.60;;;22.40;99.90;;;;;;4994127;28;20168;-86
2023/09/21 10:34:32;;;;;;;6.25;5.25;;;22.50;99.90;;;;;;4993197;28;20183;-85
2023/09/21 10:37:01;;;;;;;8.30;5.68;;;22.60;99.90;;;;;;4993188;28;20188;-85
2023/09/21 10:39:30;;;;;;;10.13;5.57;;;22.70;99.90;;;;;;4993204;28;20203;-86
2023/09/21 10:42:03;;;;;;;7.45;5.60;;;22.80;99.90;;;;;;4993853;28;20198;-85
2023/09/21 10:45:00;;;;;;;8.25;5.32;;;22.80;99.90;;;;;;4992992;28;20672;-85
2023/09/21 10:47:38;;;;;;;8.88;5.50;;;23.00;99.90;;;;;;4993256;28;20721;-85
2023/09/21 10:50:12;;;;;;;8.25;5.43;;;23.20;99.90;;;;;;4992919;28;20192;-85
2023/09/21 10:52:46;;;;;;;6.35;5.30;;;23.20;99.90;;;;;;4993742;28;20191;-85
2023/09/21 10:55:14;;;;;;;6.60;5.18;;;23.20;99.90;;;;;;4992805;28;20168;-85
2023/09/21 10:57:41;;;;;;;5.50;4.63;;;23.10;99.90;;;;;;4993741;28;20207;-85
2023/09/21 11:00:08;;;;;;;7.28;4.65;;;23.10;99.90;;;;;;4993078;28;20203;-86
2023/09/21 11:02:40;;;;;;;5.22;4.72;;;23.30;99.90;;;;;;4994199;28;20522;-85
2023/09/21 11:05:09;;;;;;;6.40;4.43;;;23.30;99.90;;;;;;4993625;28;20160;-85
2023/09/21 11:07:36;;;;;;;7.95;4.45;;;23.30;99.90;;;;;;4994326;28;20234;-85
2023/09/21 11:10:06;;;;;;;4.68;4.22;;;23.20;99.90;;;;;;4993003;28;20253;-86
2023/09/21 11:12:32;;;;;;;5.53;4.30;;;23.20;99.90;;;;;;4992316;28;20196;-86
2023/09/21 11:14:59;;;;;;;6.30;4.13;;;23.00;99.90;;;;;;4991609;28;20270;-86
2023/09/21 11:17:24;;;;;;;4.95;4.35;;;23.00;99.90;;;;;;4991951;28;20278;-86
2023/09/21 11:19:50;;;;;;;8.73;4.70;;;22.90;99.90;;;;;;4992699;28;20223;-86
2023/09/21 11:22:16;;;;;;;5.63;4.22;;;22.90;99.90;;;;;;4996045;28;20642;-86
2023/09/21 11:24:42;;;;;;;7.07;4.53;;;22.90;99.90;;;;;;4996623;28;20207;-85
2023/09/21 11:27:09;;;;;;;4.40;4.03;;;23.00;99.90;;;;;;4996416;28;20230;-86
2023/09/21 11:29:39;;;;;;;6.45;3.97;;;23.20;99.90;;;;;;4996515;28;20258;-86
2023/09/21 11:32:07;;;;;;;8.65;4.20;;;23.30;99.90;;;;;;4996898;28;20701;-85
2023/09/21 11:34:36;;;;;;;5.10;3.55;;;23.50;99.90;;;;;;4996502;28;20176;-86
2023/09/21 11:37:03;;;;;;;5.63;3.60;;;23.70;99.90;;;;;;4996455;28;20659;-86
2023/09/21 11:39:29;;;;;;;7.30;3.50;;;23.70;99.90;;;;;;4997168;28;20287;-86
2023/09/21 11:41:56;;;;;;;3.78;3.15;;;23.90;99.90;;;;;;4997522;28;20283;-85
2023/09/21 11:44:27;;;;;;;4.55;3.03;;;24.10;99.90;;;;;;4996535;28;20254;-85
2023/09/21 11:46:57;;;;;;;6.22;3.30;;;24.10;99.90;;;;;;4996210;28;20255;-86
2023/09/21 11:49:37;;;;;;;6.93;2.97;;;24.20;99.90;;;;;;4996852;28;20200;-86
2023/09/21 11:52:03;;;;;;;5.60;3.35;;;24.20;99.90;;;;;;4996503;28;20164;-85
2023/09/21 11:54:31;;;;;;;5.38;3.38;;;24.10;99.90;;;;;;4996314;28;20180;-87
2023/09/21 11:56:56;;;;;;;4.15;2.78;;;24.20;99.90;;;;;;4996124;28;20271;-86
2023/09/21 11:59:22;;;;;;;7.68;3.83;;;24.30;99.90;;;;;;4996026;28;20223;-86
2023/09/21 12:01:49;;;;;;;5.75;3.88;;;24.40;99.90;;;;;;4996568;28;20177;-86
2023/09/21 12:04:18;;;;;;;5.72;4.05;;;24.30;99.90;;;;;;4996238;28;20207;-86
2023/09/21 12:06:44;;;;;;;4.13;3.45;;;24.30;99.90;;;;;;4996219;28;20199;-86
2023/09/21 12:09:12;;;;;;;8.98;3.70;;;24.30;99.90;;;;;;4995912;28;20555;-86
2023/09/21 12:11:38;;;;;;;5.82;3.42;;;24.20;99.90;;;;;;4995819;28;20192;-86
2023/09/21 12:14:04;;;;;;;3.95;3.50;;;24.20;99.90;;;;;;4996399;28;20180;-86
2023/09/21 12:17:21;;;;;;;5.28;3.33;;;24.10;99.90;;;;;;4996543;28;20557;-86
2023/09/21 12:19:47;;;;;;;3.40;3.15;;;24.10;99.90;;;;;;4996223;28;20290;-86
2023/09/21 12:22:12;;;;;;;6.10;3.80;;;24.10;99.90;;;;;;4999718;28;20227;-86
2023/09/21 12:24:38;;;;;;;6.10;3.25;;;24.10;99.90;;;;;;4996998;28;20208;-86
2023/09/21 12:27:07;;;;;;;3.67;3.10;;;24.20;99.90;;;;;;4995882;28;20180;-86
2023/09/21 12:29:34;;;;;;;6.45;3.78;;;24.30;99.90;;;;;;4995757;28;20204;-86
2023/09/21 12:32:06;;;;;;;5.60;3.78;;;24.50;99.60;;;;;;4996812;28;20173;-86
2023/09/21 12:34:32;;;;;;;6.10;3.47;;;24.70;99.20;;;;;;4994763;28;20176;-84
2023/09/21 12:36:59;;;;;;;7.60;3.40;;;24.70;98.90;;;;;;4995638;28;20194;-84
2023/09/21 12:39:30;;;;;;;6.13;3.30;;;24.80;98.90;;;;;;4996093;28;20204;-85
2023/09/21 12:42:21;;;;;;;4.07;3.15;;;24.80;98.50;;;;;;4995390;28;20168;-85
2023/09/21 12:44:58;;;;;;;7.85;3.25;;;24.70;98.20;;;;;;4995865;28;20629;-85
2023/09/21 12:47:25;;;;;;;4.15;3.00;;;24.60;98.80;;;;;;4996787;28;20160;-85
2023/09/21 12:49:50;;;;;;;7.00;3.60;;;24.70;99.00;;;;;;4995759;28;20196;-85
2023/09/21 12:52:16;;;;;;;3.90;3.60;;;24.80;98.00;;;;;;4996122;28;20534;-85
2023/09/21 12:54:42;;;;;;;9.05;3.67;;;24.80;97.90;;;;;;4996123;28;20224;-85
2023/09/21 12:57:08;;;;;;;5.07;3.63;;;24.80;97.70;;;;;;4995135;28;20242;-84
2023/09/21 12:59:36;;;;;;;4.22;3.65;;;24.60;97.70;;;;;;4995112;28;20215;-85
2023/09/21 13:02:02;;;;;;;4.90;3.33;;;24.60;97.90;;;;;;4995041;28;20196;-85
2023/09/21 13:04:28;;;;;;;25.60;4.22;;;24.60;97.60;;;;;;4994931;28;20239;-85
2023/09/21 13:06:53;;;;;;;9.13;3.72;;;24.60;97.80;;;;;;4995072;28;20192;-88
2023/09/21 13:09:19;;;;;;;5.45;2.92;;;24.70;97.60;;;;;;4995494;28;20639;-88
2023/09/21 13:11:45;;;;;;;12.80;3.10;;;24.70;97.10;;;;;;4995144;28;20179;-88
2023/09/21 13:14:10;;;;;;;7.15;3.55;;;24.70;97.00;;;;;;4994895;28;20176;-88
2023/09/21 13:16:36;;;;;;;11.13;3.17;;;24.70;97.20;;;;;;4994904;28;20315;-88
2023/09/21 13:19:01;;;;;;;77.90;6.97;;;24.60;97.10;;;;;;4995009;28;20641;-87
2023/09/21 13:21:28;;;;;;;31.63;4.95;;;24.50;98.20;;;;;;4995847;28;20196;-88
2023/09/21 13:23:53;;;;;;;175.93;10.77;;;24.40;98.70;;;;;;4995344;28;20208;-87
2023/09/21 13:26:19;;;;;;;100.75;7.72;;;24.40;98.80;;;;;;4994468;28;20572;-88
2023/09/21 13:28:45;;;;;;;17.70;4.43;;;24.40;99.10;;;;;;4994467;28;20256;-87
2023/09/21 13:31:11;;;;;;;39.90;4.82;;;24.30;99.10;;;;;;4994930;28;20176;-88
2023/09/21 13:33:38;;;;;;;87.97;6.15;;;24.30;99.00;;;;;;4994453;28;20184;-87